Aérodrome :
LOGIN :

S'inscrire | Disclaimer

   EN    FR    IT 

 










Légende :    VFR   VFR Marginal   IFR   IFR Intensif   IFR Très Intensif
Visi : 
Plafond : 
>= 8 km
>= 3000ft
5 à 8 km
1000 à 3000 ft
1500m à 5 km
500 à 1000 ft
800 à 1500m
200 à 500 ft
< 800m
< 200 ft
Symboles :   Orages  Brouillard  Fortes neiges  Fortes précipitations  Vent > 20 kt
SIGMETs :   Divers  Orages  Givrage  Turbulence  Onde Orograph.  Cendres Volcan.







- Altitude de l'aérodrome : 622 ft
- Code IATA : BRS
- Voir les cartes d'approche


EGGD - Bristol Int.

DERNIER METAR :
  • 160150Z AUTO 27010KT 5000 BR OVC002 14/14 Q1023

METARs EXPIRÉS :
  • 160120Z AUTO 27010KT 9999 OVC003 14/14 Q1023
  • 160050Z AUTO 27012KT 9999 OVC002 14/14 Q1023
  • 160020Z AUTO 26012KT 9999 OVC002 14/14 Q1023
  • 152350Z AUTO 27011KT 9999 BKN002 OVC007 14/14 Q1024
  • 152320Z 27011KT 5000 BR FEW001 BKN002 14/14 Q1024
  • 152250Z 27011KT 9999 FEW003 SCT004 BKN009 14/14 Q1024

TAF AMD TAF EGGD
Valide du 16 à 00h jusqu'au 17 à 00h UTC


152334Z 1600/1624 26010KT 9999 SCT003 BKN008
TEMPO 1600/1609 6000 -DZ BKN003
PROB30
TEMPO 1600/1609 3000 BR BKN001
BECMG 1609/1612 7000 BKN003
PROB40
TEMPO 1609/1614 0300 DZ FG BKN001
BECMG 1614/1617 04008KT 9999 BKN006
PROB40
TEMPO 1617/1620 6000 BKN003
ATIS : +44 1275 473 666
Pas de NOTAMs connus pour ce terrain.



MET'MAP, la Météo Aéronautique d'un coup d'oeil ! - Copyright ORBIFLY Décembre 2007 - Disclaimer

ORBIFLY MET'MAP TEAM :

Programmation & Développement : Alexandra Zaïnal
Conception & Développement : Baudouin d'Aumeries
Co-Programmation & Développement : Marc-Olivier Méhu
Soutien technique & logistique : Manuel Goepfert

Contact : metmap@orbifly.com




SOURCES & CREDITS :

   NOAA